Time;durP1;ratioP1;P1;durP2;ratioP2;P2;SDS_P1;SDS_P2;PMS_P1;PMS_P2;Temp;Humidity;BMP_temperature;BMP_pressure;BME280_temperature;BME280_humidity;BME280_pressure;Samples;Min_cycle;Max_cycle;Signal;HPM_P1;HPM_P2
2022/05/16 00:00:37;;;;;;;6.82;5.45;;;12.90;99.90;;;;;;5051969;28;20049;-73
2022/05/16 00:03:06;;;;;;;9.82;5.57;;;12.90;99.90;;;;;;5049926;28;20048;-73
2022/05/16 00:05:32;;;;;;;9.73;5.65;;;12.90;99.90;;;;;;5050455;28;20052;-73
2022/05/16 00:07:58;;;;;;;9.15;5.63;;;12.90;99.90;;;;;;5063064;28;20426;-73
2022/05/16 00:10:24;;;;;;;8.18;5.53;;;12.80;99.90;;;;;;5052286;28;20044;-73
2022/05/16 00:12:50;;;;;;;13.55;6.40;;;12.80;99.90;;;;;;5036049;28;20040;-73
2022/05/16 00:15:22;;;;;;;9.52;5.80;;;12.80;99.90;;;;;;5036617;28;20048;-73
2022/05/16 00:17:47;;;;;;;8.18;5.50;;;12.80;99.90;;;;;;5051970;28;20517;-73
2022/05/16 00:20:14;;;;;;;10.98;6.35;;;12.80;99.90;;;;;;5080198;28;20045;-73
2022/05/16 00:22:39;;;;;;;8.10;5.47;;;12.80;99.90;;;;;;5050360;28;20056;-73
2022/05/16 00:25:08;;;;;;;8.40;5.72;;;12.70;99.90;;;;;;5052530;28;20063;-73
2022/05/16 00:27:34;;;;;;;9.38;5.90;;;12.70;99.90;;;;;;5074900;28;20032;-73
2022/05/16 00:30:05;;;;;;;6.82;5.05;;;12.70;99.90;;;;;;5053985;28;20055;-73
2022/05/16 00:32:31;;;;;;;10.40;5.47;;;12.70;99.90;;;;;;5051062;28;20041;-73
2022/05/16 00:34:56;;;;;;;10.57;5.03;;;12.70;99.90;;;;;;5050135;28;20036;-73
2022/05/16 00:37:22;;;;;;;9.48;5.25;;;12.70;99.90;;;;;;5051864;28;20033;-73
2022/05/16 00:39:47;;;;;;;7.28;5.13;;;12.70;99.90;;;;;;5052676;28;20115;-73
2022/05/16 00:42:13;;;;;;;7.95;4.68;;;12.70;99.90;;;;;;5050519;28;20135;-73
2022/05/16 00:44:39;;;;;;;8.80;5.28;;;12.70;99.90;;;;;;5052459;28;20045;-74
2022/05/16 00:47:05;;;;;;;8.10;5.38;;;12.70;99.90;;;;;;5066875;28;20028;-74
2022/05/16 00:49:36;;;;;;;8.68;5.35;;;12.70;99.90;;;;;;5054346;28;20393;-73
2022/05/16 00:52:07;;;;;;;6.13;5.05;;;12.60;99.90;;;;;;5053774;28;20079;-73
2022/05/16 00:54:47;;;;;;;8.75;4.75;;;12.60;99.90;;;;;;5045169;28;20036;-74
2022/05/16 00:57:15;;;;;;;8.18;5.10;;;12.60;99.90;;;;;;5054965;28;20087;-74
2022/05/16 00:59:54;;;;;;;7.10;4.50;;;12.60;99.90;;;;;;5055831;28;20059;-72
2022/05/16 01:05:07;;;;;;;7.07;5.07;;;12.60;99.90;;;;;;5054666;28;20048;-73
2022/05/16 01:07:40;;;;;;;6.13;4.55;;;12.60;99.90;;;;;;5054713;28;20036;-73
2022/05/16 01:10:10;;;;;;;5.82;4.80;;;12.60;99.90;;;;;;5050670;28;20036;-73
2022/05/16 01:12:39;;;;;;;10.48;4.38;;;12.50;99.90;;;;;;5054430;28;20041;-73
2022/05/16 01:15:26;;;;;;;4.82;4.10;;;12.50;99.90;;;;;;5055356;28;20087;-74
2022/05/16 01:17:52;;;;;;;7.95;4.35;;;12.50;99.90;;;;;;5054650;28;20055;-74
2022/05/16 01:20:18;;;;;;;9.38;4.60;;;12.50;99.90;;;;;;5054747;28;20036;-74
2022/05/16 01:22:49;;;;;;;6.70;4.60;;;12.50;99.90;;;;;;5054356;28;20045;-74
2022/05/16 01:25:21;;;;;;;6.38;4.07;;;12.50;99.90;;;;;;5044694;28;20094;-74
2022/05/16 01:27:56;;;;;;;9.45;4.53;;;12.50;99.90;;;;;;5054529;28;20064;-73
2022/05/16 01:30:49;;;;;;;8.93;4.70;;;12.40;99.90;;;;;;5054777;28;20110;-74
2022/05/16 01:33:19;;;;;;;8.23;4.65;;;12.40;99.90;;;;;;5052852;28;21038;-73
2022/05/16 01:35:45;;;;;;;5.78;4.13;;;12.40;99.90;;;;;;5072859;28;20036;-73
2022/05/16 01:38:26;;;;;;;8.15;4.07;;;12.40;99.90;;;;;;5054588;28;20131;-73
2022/05/16 01:41:00;;;;;;;7.32;3.90;;;12.40;99.90;;;;;;5048143;28;20040;-73
2022/05/16 01:43:30;;;;;;;7.40;4.35;;;12.40;99.90;;;;;;5078853;28;20040;-73
2022/05/16 01:45:56;;;;;;;5.78;3.88;;;12.40;99.90;;;;;;5054782;28;20665;-73
2022/05/16 01:48:22;;;;;;;6.55;3.67;;;12.40;99.90;;;;;;5051941;28;20047;-73
2022/05/16 01:50:49;;;;;;;4.45;3.42;;;12.40;99.90;;;;;;5054817;28;20041;-73
2022/05/16 01:53:16;;;;;;;5.78;3.50;;;12.30;99.90;;;;;;5067686;28;20090;-73
2022/05/16 01:55:42;;;;;;;7.65;3.60;;;12.30;99.90;;;;;;5062244;28;20040;-73
2022/05/16 01:58:08;;;;;;;6.22;3.63;;;12.30;99.90;;;;;;5041288;28;20048;-73
2022/05/16 02:00:34;;;;;;;6.25;3.35;;;12.30;99.90;;;;;;5054170;28;20051;-73
2022/05/16 02:03:01;;;;;;;5.63;3.42;;;12.30;99.90;;;;;;5062705;28;20047;-73
2022/05/16 02:05:27;;;;;;;7.03;3.55;;;12.30;99.90;;;;;;5052939;28;20066;-73
2022/05/16 02:07:53;;;;;;;6.40;3.10;;;12.30;99.90;;;;;;5054041;28;20171;-73
2022/05/16 02:10:22;;;;;;;5.65;3.30;;;12.30;99.90;;;;;;5054305;28;20037;-73
2022/05/16 02:12:49;;;;;;;5.10;3.20;;;12.30;99.90;;;;;;5051801;28;20052;-73
2022/05/16 02:15:20;;;;;;;5.63;3.17;;;12.30;99.90;;;;;;5034753;28;20078;-73
2022/05/16 02:17:46;;;;;;;6.40;3.33;;;12.30;99.90;;;;;;5068800;28;20040;-73
2022/05/16 02:20:13;;;;;;;6.68;3.15;;;12.20;99.90;;;;;;5052481;28;20590;-73
2022/05/16 02:25:23;;;;;;;5.88;3.30;;;12.10;99.90;;;;;;5053965;28;20557;-73
2022/05/16 02:27:49;;;;;;;5.43;2.78;;;12.10;99.90;;;;;;5055260;28;20076;-72
2022/05/16 02:30:16;;;;;;;4.10;2.53;;;12.10;99.90;;;;;;5053516;28;20485;-72
2022/05/16 02:32:41;;;;;;;4.70;2.95;;;12.20;99.90;;;;;;5069518;28;20992;-73
2022/05/16 02:35:08;;;;;;;6.18;3.10;;;12.10;99.90;;;;;;5051993;28;20080;-73
2022/05/16 02:37:33;;;;;;;6.30;3.00;;;12.10;99.90;;;;;;5071361;28;20472;-73
2022/05/16 02:39:59;;;;;;;4.90;3.30;;;12.00;99.90;;;;;;5052151;28;20044;-73
2022/05/16 02:42:25;;;;;;;5.32;2.92;;;12.00;99.90;;;;;;5053468;28;20408;-73
2022/05/16 02:44:53;;;;;;;8.38;2.70;;;12.00;99.90;;;;;;5053407;28;20054;-73
2022/05/16 02:47:23;;;;;;;7.93;3.00;;;12.00;99.90;;;;;;5060475;28;20507;-73
2022/05/16 02:49:49;;;;;;;5.70;2.60;;;12.00;99.90;;;;;;5053814;28;20078;-73
2022/05/16 02:52:15;;;;;;;5.05;2.50;;;12.00;99.90;;;;;;5085014;28;20047;-73
2022/05/16 02:54:40;;;;;;;4.22;2.70;;;12.00;99.90;;;;;;5053461;28;20123;-73
2022/05/16 02:57:07;;;;;;;5.65;2.47;;;12.00;99.90;;;;;;5053379;28;20044;-73
2022/05/16 02:59:34;;;;;;;6.43;2.70;;;12.00;99.90;;;;;;5053457;28;20071;-73
2022/05/16 03:02:05;;;;;;;4.43;2.90;;;11.90;99.90;;;;;;5051857;28;20497;-73
2022/05/16 03:04:32;;;;;;;4.88;2.70;;;11.90;99.90;;;;;;5072221;28;20094;-73
2022/05/16 03:06:58;;;;;;;4.97;2.30;;;12.00;99.90;;;;;;5070097;28;20451;-73
2022/05/16 03:09:26;;;;;;;6.13;3.22;;;12.00;99.90;;;;;;5048204;28;20040;-73
2022/05/16 03:11:52;;;;;;;4.80;2.40;;;12.00;99.90;;;;;;5051879;28;20052;-73
2022/05/16 03:14:18;;;;;;;5.20;2.70;;;12.00;99.90;;;;;;5075055;28;20068;-73
2022/05/16 03:16:44;;;;;;;5.45;2.58;;;11.90;99.90;;;;;;5052373;28;20097;-74
2022/05/16 03:19:10;;;;;;;5.38;2.40;;;11.90;99.90;;;;;;5068428;28;20037;-73
2022/05/16 03:21:35;;;;;;;5.93;2.83;;;11.90;99.90;;;;;;5065081;28;20051;-73
2022/05/16 03:24:01;;;;;;;6.65;2.88;;;11.90;99.90;;;;;;5034062;28;20056;-72
2022/05/16 03:26:27;;;;;;;3.83;2.33;;;11.90;99.90;;;;;;5052753;28;20115;-73
2022/05/16 03:28:53;;;;;;;4.20;2.42;;;11.80;99.90;;;;;;5053772;28;20025;-73
2022/05/16 03:31:19;;;;;;;4.13;2.58;;;11.80;99.90;;;;;;5054224;28;20047;-73
2022/05/16 03:33:45;;;;;;;4.53;2.40;;;11.80;99.90;;;;;;5069820;28;20478;-73
2022/05/16 03:36:11;;;;;;;4.88;2.65;;;11.80;99.90;;;;;;5048499;28;20031;-73
2022/05/16 03:41:22;;;;;;;5.38;2.63;;;11.80;99.90;;;;;;5030478;28;20053;-70
2022/05/16 03:43:47;;;;;;;5.80;2.45;;;11.80;99.90;;;;;;5003755;28;20045;-70
2022/05/16 03:46:14;;;;;;;7.65;2.53;;;11.80;99.90;;;;;;5018629;28;20040;-70
2022/05/16 03:48:40;;;;;;;4.20;2.45;;;11.80;99.90;;;;;;5030355;28;20049;-70
2022/05/16 03:51:07;;;;;;;4.65;2.42;;;11.80;99.90;;;;;;5012788;28;20103;-70
2022/05/16 03:53:43;;;;;;;8.57;3.00;;;11.90;99.90;;;;;;5030563;28;20037;-70
2022/05/16 03:56:08;;;;;;;3.83;2.25;;;11.80;99.90;;;;;;5012676;28;20041;-70
2022/05/16 03:58:34;;;;;;;6.05;2.47;;;11.80;99.90;;;;;;5012749;28;20047;-70
2022/05/16 04:00:59;;;;;;;4.45;2.40;;;11.80;99.90;;;;;;5006335;28;20045;-70
2022/05/16 04:03:26;;;;;;;4.07;2.08;;;11.80;99.90;;;;;;5004890;28;20029;-70
2022/05/16 04:05:52;;;;;;;5.65;2.60;;;11.90;99.90;;;;;;5013152;28;20055;-70
2022/05/16 04:08:17;;;;;;;4.35;2.55;;;11.90;99.90;;;;;;5012840;28;20033;-70
2022/05/16 04:10:43;;;;;;;4.15;2.55;;;11.90;99.90;;;;;;4996348;28;20121;-70
2022/05/16 04:13:08;;;;;;;9.55;3.00;;;12.00;99.90;;;;;;5013028;28;20046;-70
2022/05/16 04:15:34;;;;;;;5.20;2.60;;;12.00;99.90;;;;;;5039043;28;20046;-70
2022/05/16 04:17:59;;;;;;;4.25;2.80;;;12.00;99.90;;;;;;5022050;28;20654;-70
2022/05/16 04:20:25;;;;;;;5.07;2.22;;;12.00;99.90;;;;;;5013158;28;20347;-70
2022/05/16 04:22:50;;;;;;;5.57;2.65;;;12.00;99.90;;;;;;5006793;28;20041;-71
2022/05/16 04:25:18;;;;;;;4.43;2.30;;;12.00;99.90;;;;;;4997272;28;20133;-70
2022/05/16 04:27:44;;;;;;;9.18;2.70;;;12.00;99.90;;;;;;4994870;28;20048;-70
2022/05/16 04:30:11;;;;;;;4.78;2.35;;;12.10;99.90;;;;;;5019675;28;20029;-70
2022/05/16 04:32:36;;;;;;;6.43;2.45;;;12.20;99.90;;;;;;5011959;28;20045;-70
2022/05/16 04:35:03;;;;;;;4.13;2.60;;;12.20;99.90;;;;;;5010558;28;20057;-70
2022/05/16 04:37:32;;;;;;;4.43;2.20;;;12.30;99.90;;;;;;5012341;28;20081;-71
2022/05/16 04:40:03;;;;;;;2.92;2.28;;;12.30;99.90;;;;;;5014962;28;20041;-70
2022/05/16 04:42:41;;;;;;;3.90;2.28;;;12.40;99.90;;;;;;5005503;28;20053;-70
2022/05/16 04:45:17;;;;;;;4.20;2.13;;;12.30;99.90;;;;;;5015031;28;20435;-71
2022/05/16 04:47:44;;;;;;;4.50;2.97;;;12.30;99.90;;;;;;5014175;28;20092;-71
2022/05/16 04:50:12;;;;;;;2.67;2.42;;;12.30;99.90;;;;;;5007581;28;20048;-71
2022/05/16 04:52:38;;;;;;;3.08;2.30;;;12.40;99.90;;;;;;5016362;28;20102;-71
2022/05/16 04:55:05;;;;;;;6.22;2.67;;;12.30;99.90;;;;;;5012677;28;20503;-71
2022/05/16 04:57:30;;;;;;;2.97;2.30;;;12.30;99.90;;;;;;5031876;28;20436;-70
2022/05/16 04:59:56;;;;;;;5.50;3.03;;;12.40;99.90;;;;;;5016448;28;20128;-70
2022/05/16 05:02:21;;;;;;;5.05;2.80;;;12.40;99.90;;;;;;5016246;28;20041;-71
2022/05/16 05:04:48;;;;;;;3.47;2.88;;;12.50;99.90;;;;;;5005174;28;20053;-71
2022/05/16 05:07:14;;;;;;;3.70;2.78;;;12.50;99.90;;;;;;5015340;28;20141;-70
2022/05/16 05:15:12;;;;;;;5.35;3.25;;;12.70;99.90;;;;;;5015509;28;20053;-70
2022/05/16 05:17:38;;;;;;;3.53;2.40;;;12.90;99.90;;;;;;5015299;28;20041;-71
2022/05/16 05:20:05;;;;;;;5.25;3.10;;;13.00;99.90;;;;;;5014247;28;20567;-71
2022/05/16 05:22:30;;;;;;;3.72;2.80;;;13.10;99.90;;;;;;5030495;28;20037;-71
2022/05/16 05:24:56;;;;;;;4.85;2.90;;;13.20;99.90;;;;;;5015373;28;20508;-71
2022/05/16 05:27:22;;;;;;;6.82;3.13;;;13.30;99.90;;;;;;5033951;28;20041;-71
2022/05/16 05:29:48;;;;;;;5.13;3.25;;;13.60;99.90;;;;;;5015346;28;20091;-70
2022/05/16 05:32:15;;;;;;;3.60;2.72;;;13.70;99.90;;;;;;5032318;28;20053;-71
2022/05/16 05:34:41;;;;;;;3.75;2.72;;;13.90;99.90;;;;;;5012604;28;20049;-71
2022/05/16 05:37:06;;;;;;;6.03;2.55;;;14.00;99.90;;;;;;5015627;28;20053;-71
2022/05/16 05:39:34;;;;;;;5.57;2.63;;;14.20;99.90;;;;;;5013608;28;20091;-71
2022/05/16 05:42:00;;;;;;;4.30;2.67;;;14.50;99.90;;;;;;5015012;28;20390;-71
2022/05/16 05:44:25;;;;;;;7.22;3.28;;;14.50;99.90;;;;;;5031699;28;20473;-71
2022/05/16 05:46:51;;;;;;;4.93;2.70;;;14.60;99.90;;;;;;4999211;28;20053;-71
2022/05/16 05:49:17;;;;;;;4.32;2.97;;;14.60;99.90;;;;;;5014933;28;20048;-71
2022/05/16 05:51:43;;;;;;;5.97;2.88;;;14.60;99.90;;;;;;5032678;28;20049;-71
2022/05/16 05:54:09;;;;;;;4.47;2.58;;;14.90;99.90;;;;;;5031705;28;20034;-71
2022/05/16 05:56:34;;;;;;;4.75;2.60;;;15.30;99.90;;;;;;4997954;28;20041;-71
2022/05/16 05:59:00;;;;;;;6.20;2.85;;;16.20;99.90;;;;;;5012962;28;20138;-71
2022/05/16 06:01:26;;;;;;;4.82;2.80;;;17.50;98.80;;;;;;5012817;28;20045;-71
2022/05/16 06:03:52;;;;;;;5.53;2.75;;;18.60;98.60;;;;;;5032918;28;20211;-71
2022/05/16 06:06:18;;;;;;;5.18;3.00;;;19.90;94.30;;;;;;5013503;28;20332;-70
2022/05/16 06:08:44;;;;;;;4.82;2.88;;;20.80;92.10;;;;;;5028070;28;20038;-71
2022/05/16 06:11:10;;;;;;;7.03;2.78;;;21.50;90.50;;;;;;5016924;28;20391;-71
2022/05/16 06:13:37;;;;;;;5.30;3.05;;;21.70;87.80;;;;;;5014401;28;20439;-71
2022/05/16 06:16:03;;;;;;;5.18;2.58;;;20.80;87.90;;;;;;5031112;28;20044;-71
2022/05/16 06:18:28;;;;;;;6.38;2.90;;;19.90;89.80;;;;;;5012368;28;20038;-71
2022/05/16 06:20:54;;;;;;;4.70;2.70;;;19.20;91.20;;;;;;5009813;28;20041;-71
2022/05/16 06:23:19;;;;;;;4.65;2.60;;;18.70;91.70;;;;;;4998446;28;20037;-71
2022/05/16 06:25:45;;;;;;;6.88;2.80;;;18.20;92.70;;;;;;5032616;28;20053;-71
2022/05/16 06:28:21;;;;;;;6.35;3.00;;;18.00;93.40;;;;;;5014698;28;20125;-71
2022/05/16 06:30:48;;;;;;;6.45;2.83;;;18.30;93.10;;;;;;5014936;28;20049;-71
2022/05/16 06:33:15;;;;;;;5.68;2.70;;;18.90;93.30;;;;;;5008817;28;20534;-71
2022/05/16 06:35:41;;;;;;;7.32;3.10;;;19.40;93.20;;;;;;5023457;28;20049;-71
2022/05/16 06:38:21;;;;;;;4.93;2.78;;;20.30;90.80;;;;;;5030814;28;20057;-71
2022/05/16 06:40:47;;;;;;;4.03;2.67;;;21.00;88.40;;;;;;5010469;28;20100;-71
2022/05/16 06:43:14;;;;;;;5.93;2.65;;;22.00;89.00;;;;;;5029701;28;20033;-71
2022/05/16 06:45:41;;;;;;;6.93;2.80;;;22.90;80.80;;;;;;5028420;28;20140;-71
2022/05/16 06:48:07;;;;;;;5.45;2.67;;;23.50;80.10;;;;;;5013179;28;20033;-71
2022/05/16 06:50:34;;;;;;;5.00;2.90;;;24.00;77.60;;;;;;5012103;28;20037;-71
2022/05/16 06:53:02;;;;;;;4.75;2.58;;;23.90;72.10;;;;;;5013065;28;20371;-71
2022/05/16 06:55:27;;;;;;;5.35;3.13;;;24.10;72.30;;;;;;5014008;28;20037;-71
2022/05/16 06:57:53;;;;;;;6.15;2.50;;;24.70;69.70;;;;;;5030158;28;20034;-71
2022/05/16 07:00:19;;;;;;;5.30;3.05;;;24.90;69.70;;;;;;5019599;28;20033;-71
2022/05/16 07:02:45;;;;;;;5.22;2.60;;;24.70;65.40;;;;;;4993977;28;20044;-71
2022/05/16 07:05:11;;;;;;;5.25;2.53;;;25.00;67.60;;;;;;5025666;28;20034;-71
2022/05/16 07:07:37;;;;;;;5.28;2.80;;;25.50;66.50;;;;;;5011038;28;20490;-71
2022/05/16 07:10:04;;;;;;;4.72;2.58;;;25.60;65.10;;;;;;5009082;28;20045;-71
2022/05/16 07:12:30;;;;;;;5.10;2.80;;;26.10;64.10;;;;;;5026177;28;20080;-70
2022/05/16 07:14:55;;;;;;;4.55;2.78;;;25.50;63.40;;;;;;5009738;28;20077;-71
2022/05/16 07:17:21;;;;;;;7.47;2.92;;;25.60;60.30;;;;;;5023795;28;20136;-71
2022/05/16 07:19:49;;;;;;;9.38;3.17;;;25.70;63.30;;;;;;5025515;28;20502;-71
2022/05/16 07:22:16;;;;;;;4.78;2.70;;;26.10;62.80;;;;;;5027978;28;20064;-71
2022/05/16 07:24:44;;;;;;;7.03;2.70;;;26.60;62.30;;;;;;5028394;28;20037;-71
2022/05/16 07:29:54;;;;;;;5.65;2.95;;;26.00;60.10;;;;;;5011375;28;20085;-71
2022/05/16 07:32:20;;;;;;;4.85;3.00;;;26.10;58.50;;;;;;5029742;28;20530;-71
2022/05/16 07:34:46;;;;;;;5.80;2.58;;;25.80;58.40;;;;;;5008647;28;20055;-71
2022/05/16 07:37:12;;;;;;;6.00;2.58;;;26.00;59.90;;;;;;5007457;28;20073;-71
2022/05/16 07:39:38;;;;;;;6.75;3.22;;;26.10;58.60;;;;;;4994809;28;20089;-71
2022/05/16 07:42:09;;;;;;;6.18;2.80;;;26.70;56.70;;;;;;5032202;28;22213;-71
2022/05/16 07:44:36;;;;;;;6.53;2.92;;;26.50;58.00;;;;;;5033364;28;20634;-71
2022/05/16 07:47:03;;;;;;;6.38;2.65;;;26.30;58.20;;;;;;5034017;28;20691;-71
2022/05/16 07:49:29;;;;;;;6.35;2.53;;;26.10;57.20;;;;;;4989445;28;20045;-71
2022/05/16 07:51:54;;;;;;;5.78;2.97;;;26.10;57.10;;;;;;4990606;28;20429;-71
2022/05/16 07:54:20;;;;;;;7.88;3.17;;;25.00;58.60;;;;;;5003482;28;20040;-71
2022/05/16 07:56:46;;;;;;;5.20;2.78;;;25.40;59.00;;;;;;4990253;28;20045;-70
2022/05/16 07:59:11;;;;;;;6.25;3.08;;;25.00;59.50;;;;;;5037323;28;20072;-71
2022/05/16 08:01:37;;;;;;;6.63;2.97;;;24.70;60.40;;;;;;5015576;28;20048;-70
2022/05/16 08:04:05;;;;;;;6.35;2.95;;;23.90;61.20;;;;;;5041694;28;20080;-71
2022/05/16 08:06:31;;;;;;;6.18;3.05;;;23.50;61.70;;;;;;5006631;28;20692;-70
2022/05/16 08:11:54;;;;;;;12.10;3.45;;;22.80;64.30;;;;;;4978787;28;20671;-71
2022/05/16 08:14:20;;;;;;;5.15;2.78;;;22.60;65.30;;;;;;5031708;28;20033;-71
2022/05/16 08:16:45;;;;;;;6.65;3.03;;;22.60;64.90;;;;;;5015294;28;20092;-70
2022/05/16 08:19:11;;;;;;;9.98;3.00;;;22.50;66.60;;;;;;5019602;28;20052;-70
2022/05/16 08:21:37;;;;;;;6.55;3.03;;;22.60;67.40;;;;;;5013599;28;20160;-70
2022/05/16 08:24:07;;;;;;;7.07;2.88;;;22.70;67.20;;;;;;5013476;28;20152;-70
2022/05/16 08:26:33;;;;;;;5.68;2.95;;;22.70;67.40;;;;;;5010672;28;20048;-70
2022/05/16 08:28:59;;;;;;;6.10;2.80;;;22.90;67.00;;;;;;5028672;28;20430;-71
2022/05/16 08:31:28;;;;;;;6.15;2.90;;;22.90;67.50;;;;;;5031163;28;20502;-71
2022/05/16 08:33:55;;;;;;;5.07;3.08;;;23.00;66.90;;;;;;5012311;28;20033;-70
2022/05/16 08:41:59;;;;;;;9.02;3.00;;;23.10;67.10;;;;;;5015478;28;20104;-70
2022/05/16 08:44:40;;;;;;;7.38;2.83;;;23.20;67.90;;;;;;5014576;28;20056;-71
2022/05/16 08:47:25;;;;;;;6.60;3.03;;;23.40;66.70;;;;;;5029684;28;20099;-70
2022/05/16 08:49:56;;;;;;;8.45;2.63;;;23.50;65.90;;;;;;5027525;28;20151;-70
2022/05/16 08:52:39;;;;;;;5.97;2.80;;;23.60;65.90;;;;;;5013156;28;20033;-70
2022/05/16 08:55:20;;;;;;;5.10;2.67;;;23.90;66.00;;;;;;5029099;28;20077;-70
2022/05/16 08:57:50;;;;;;;8.10;2.80;;;23.90;64.90;;;;;;5011848;28;20045;-70
2022/05/16 09:00:32;;;;;;;10.35;3.13;;;24.00;67.50;;;;;;5032510;28;20061;-70
2022/05/16 09:02:58;;;;;;;;;;;24.20;66.10;;;;;;5011300;28;20049;-70
2022/05/16 09:05:26;;;;;;;5.90;2.63;;;24.40;64.00;;;;;;5013485;28;20345;-70
2022/05/16 09:07:56;;;;;;;7.25;2.85;;;24.60;66.00;;;;;;5014945;28;20041;-70
2022/05/16 09:10:23;;;;;;;7.45;3.13;;;24.70;64.20;;;;;;5019655;28;20050;-70
2022/05/16 09:13:12;;;;;;;5.63;2.40;;;24.60;63.40;;;;;;5007281;28;20467;-70
2022/05/16 09:16:05;;;;;;;7.45;2.85;;;24.70;65.00;;;;;;5029410;28;20046;-70
2022/05/16 09:18:41;;;;;;;7.32;2.70;;;24.80;63.70;;;;;;5014671;28;20037;-71
2022/05/16 09:21:11;;;;;;;8.48;2.65;;;25.00;64.10;;;;;;5017314;28;20045;-70
2022/05/16 09:23:49;;;;;;;4.90;2.72;;;25.10;63.10;;;;;;5014257;28;20045;-71
2022/05/16 09:26:29;;;;;;;6.97;3.03;;;25.20;60.90;;;;;;5008396;28;20475;-70
2022/05/16 09:28:59;;;;;;;11.48;2.88;;;25.30;61.00;;;;;;5030860;28;20047;-69
2022/05/16 09:31:31;;;;;;;7.40;3.10;;;25.00;61.90;;;;;;5015100;28;20121;-70
2022/05/16 09:33:59;;;;;;;9.65;2.80;;;25.10;61.40;;;;;;5008845;28;20539;-70
2022/05/16 09:36:34;;;;;;;6.75;2.47;;;25.20;61.40;;;;;;5009525;28;20051;-70
2022/05/16 09:39:01;;;;;;;6.63;2.78;;;25.10;60.90;;;;;;5015206;28;20049;-70
2022/05/16 09:41:40;;;;;;;5.57;2.40;;;24.80;60.60;;;;;;5032521;28;20045;-70
2022/05/16 09:44:18;;;;;;;8.95;2.55;;;24.70;62.30;;;;;;5023339;28;20037;-70
2022/05/16 09:46:44;;;;;;;7.75;3.15;;;24.80;62.50;;;;;;5014020;28;20426;-69
2022/05/16 09:49:20;;;;;;;5.18;2.20;;;24.80;61.40;;;;;;5032785;28;20095;-70
2022/05/16 09:51:47;;;;;;;6.22;2.88;;;24.90;60.40;;;;;;5013402;28;20050;-70
2022/05/16 09:54:24;;;;;;;6.45;2.50;;;25.00;62.00;;;;;;5002886;28;20053;-70
2022/05/16 09:57:12;;;;;;;5.50;2.42;;;25.30;62.90;;;;;;5013907;28;20495;-70
2022/05/16 09:59:50;;;;;;;6.82;2.72;;;25.50;61.80;;;;;;5014429;28;20049;-70
2022/05/16 10:02:34;;;;;;;8.18;2.72;;;25.60;59.80;;;;;;5013870;28;20041;-69
2022/05/16 10:05:08;;;;;;;5.57;2.50;;;25.70;63.30;;;;;;5021889;28;20049;-70
2022/05/16 10:07:44;;;;;;;5.03;2.47;;;25.80;59.70;;;;;;4989802;28;20048;-70
2022/05/16 10:10:16;;;;;;;5.40;2.33;;;26.20;61.30;;;;;;5013142;28;20033;-70
2022/05/16 10:12:41;;;;;;;7.15;2.50;;;26.30;60.00;;;;;;5006495;28;20041;-70
2022/05/16 10:15:09;;;;;;;8.52;2.40;;;26.40;58.70;;;;;;5011608;28;20041;-70
2022/05/16 10:17:37;;;;;;;6.60;2.33;;;26.20;59.50;;;;;;5028415;28;20040;-70
2022/05/16 10:20:14;;;;;;;9.18;2.53;;;26.00;58.90;;;;;;5027142;28;20030;-70
2022/05/16 10:22:40;;;;;;;17.45;2.85;;;26.20;60.20;;;;;;5027449;28;20045;-70
2022/05/16 10:25:13;;;;;;;8.00;2.65;;;26.30;61.40;;;;;;5013037;28;20125;-71
2022/05/16 10:27:39;;;;;;;4.93;2.50;;;26.60;60.10;;;;;;5014536;28;20041;-71
2022/05/16 10:30:21;;;;;;;7.40;2.30;;;26.70;59.30;;;;;;5031395;28;20044;-71
2022/05/16 10:35:55;;;;;;;6.25;2.40;;;26.60;58.90;;;;;;5014519;28;20049;-71
2022/05/16 10:38:28;;;;;;;6.65;2.50;;;26.80;60.40;;;;;;4993361;28;20081;-71
2022/05/16 10:40:59;;;;;;;7.25;2.60;;;27.00;58.40;;;;;;5012524;28;20054;-71
2022/05/16 10:43:49;;;;;;;5.85;2.75;;;27.10;58.90;;;;;;5011192;28;20072;-71
2022/05/16 10:46:19;;;;;;;5.72;2.08;;;27.30;57.90;;;;;;5010584;28;20096;-70
2022/05/16 10:48:51;;;;;;;5.78;2.60;;;27.10;56.90;;;;;;5012623;28;20038;-70
2022/05/16 10:51:31;;;;;;;11.43;2.40;;;27.20;58.30;;;;;;5015579;28;20065;-70
2022/05/16 10:54:06;;;;;;;4.20;2.42;;;27.10;56.60;;;;;;5024282;28;20151;-70
2022/05/16 10:57:07;;;;;;;5.70;2.75;;;26.80;53.70;;;;;;4992875;28;20037;-71
2022/05/16 10:59:51;;;;;;;10.55;2.72;;;26.80;56.00;;;;;;5023698;28;20042;-71
2022/05/16 11:02:34;;;;;;;4.90;2.75;;;26.80;56.10;;;;;;4999898;28;20048;-70
2022/05/16 11:05:07;;;;;;;5.57;2.28;;;27.00;55.80;;;;;;5027218;28;20095;-71
2022/05/16 11:07:56;;;;;;;6.88;2.70;;;27.00;56.60;;;;;;5009325;28;20053;-70
2022/05/16 11:10:31;;;;;;;7.97;2.92;;;26.90;55.60;;;;;;5013276;28;20080;-70
2022/05/16 11:13:29;;;;;;;4.95;2.40;;;27.00;57.40;;;;;;4999800;28;20041;-70
2022/05/16 11:15:59;;;;;;;3.78;2.45;;;27.00;57.40;;;;;;5004607;28;20096;-70
2022/05/16 11:18:34;;;;;;;5.90;2.70;;;26.90;57.50;;;;;;5010231;28;20050;-70
2022/05/16 11:21:18;;;;;;;7.95;2.63;;;26.80;57.10;;;;;;5010331;28;20050;-70
2022/05/16 11:24:19;;;;;;;7.43;2.42;;;26.50;56.70;;;;;;5010272;28;20045;-70
2022/05/16 11:27:04;;;;;;;4.53;2.40;;;26.40;57.80;;;;;;5008619;28;20069;-70
2022/05/16 11:29:33;;;;;;;8.05;2.75;;;26.30;59.30;;;;;;5010512;28;20064;-70
2022/05/16 11:32:07;;;;;;;7.07;2.97;;;26.10;61.20;;;;;;5014222;28;20091;-70
2022/05/16 11:34:41;;;;;;;9.00;2.80;;;26.00;64.90;;;;;;5009942;28;20487;-70
2022/05/16 11:37:21;;;;;;;15.88;3.10;;;25.90;66.80;;;;;;5027250;28;20046;-71
2022/05/16 11:39:57;;;;;;;7.20;2.95;;;25.60;69.60;;;;;;5015621;28;20053;-70
2022/05/16 11:42:35;;;;;;;5.47;2.63;;;25.40;68.60;;;;;;5013143;28;20110;-70
2022/05/16 11:45:03;;;;;;;9.82;3.05;;;25.30;71.80;;;;;;5030097;28;20041;-70
2022/05/16 11:47:35;;;;;;;9.38;3.17;;;25.20;72.80;;;;;;5011820;28;20124;-70
2022/05/16 11:50:17;;;;;;;8.90;2.85;;;25.10;76.40;;;;;;5023691;28;20030;-70
2022/05/16 11:53:20;;;;;;;12.55;3.53;;;25.10;77.80;;;;;;5017083;28;20124;-70
2022/05/16 12:01:37;;;;;;;5.60;3.40;;;24.70;79.80;;;;;;5024192;28;20073;-70
2022/05/16 12:04:05;;;;;;;11.65;3.38;;;24.60;82.80;;;;;;5030991;28;20443;-70
2022/05/16 12:06:37;;;;;;;5.93;3.03;;;24.50;82.50;;;;;;5013198;28;20377;-70
2022/05/16 12:09:29;;;;;;;7.35;3.95;;;24.50;85.90;;;;;;5027429;28;20398;-70
2022/05/16 12:12:04;;;;;;;12.63;3.78;;;24.40;86.20;;;;;;5030998;28;20038;-71
2022/05/16 12:14:36;;;;;;;8.35;3.60;;;24.30;87.00;;;;;;5027614;28;20124;-71
2022/05/16 12:17:07;;;;;;;6.65;3.45;;;24.30;86.70;;;;;;5010855;28;20822;-71
2022/05/16 12:19:37;;;;;;;8.75;3.55;;;24.20;87.00;;;;;;5012742;28;20141;-71
2022/05/16 12:22:11;;;;;;;7.82;3.83;;;24.20;85.40;;;;;;5030572;28;20053;-71
2022/05/16 12:24:58;;;;;;;7.78;3.65;;;24.20;85.40;;;;;;5012848;28;20099;-71
2022/05/16 12:27:44;;;;;;;8.30;3.55;;;24.20;87.40;;;;;;5007761;28;20065;-71
2022/05/16 12:30:31;;;;;;;9.77;4.10;;;24.30;87.30;;;;;;5013157;28;20395;-71
2022/05/16 12:32:57;;;;;;;19.98;4.55;;;24.30;84.90;;;;;;5030295;28;20076;-71
2022/05/16 12:35:26;;;;;;;8.55;4.50;;;24.30;87.70;;;;;;5020444;28;20034;-71
2022/05/16 12:37:53;;;;;;;7.43;3.97;;;24.30;89.20;;;;;;5006766;28;20523;-71
2022/05/16 12:40:46;;;;;;;7.05;3.47;;;24.30;87.40;;;;;;5012002;28;20129;-71
2022/05/16 12:43:42;;;;;;;10.02;4.22;;;24.40;90.00;;;;;;5012499;28;20045;-71
2022/05/16 12:47:09;;;;;;;8.95;3.75;;;24.40;89.10;;;;;;5011778;28;20064;-71
2022/05/16 12:49:44;;;;;;;10.60;4.50;;;24.40;88.70;;;;;;4956249;28;20134;-71
2022/05/16 12:52:15;;;;;;;15.23;4.35;;;24.40;90.50;;;;;;4972660;28;20074;-71
2022/05/16 12:54:51;;;;;;;10.18;4.22;;;24.50;89.80;;;;;;5012679;28;20057;-71
2022/05/16 12:57:35;;;;;;;7.60;3.75;;;24.70;86.40;;;;;;4994485;28;20033;-71
2022/05/16 13:00:21;;;;;;;9.35;4.47;;;24.90;90.80;;;;;;5031514;28;20459;-71
2022/05/16 13:03:20;;;;;;;8.00;3.55;;;25.00;88.20;;;;;;5015050;28;20049;-71
2022/05/16 13:06:04;;;;;;;6.65;4.13;;;25.20;87.10;;;;;;5014322;28;20047;-72
2022/05/16 13:08:47;;;;;;;8.70;3.92;;;25.30;88.90;;;;;;5008526;28;20084;-71
2022/05/16 13:11:13;;;;;;;10.45;4.00;;;25.50;88.10;;;;;;5011872;28;20029;-71
2022/05/16 13:14:06;;;;;;;10.43;4.00;;;25.70;86.40;;;;;;5016599;28;20534;-71
2022/05/16 13:16:52;;;;;;;8.20;4.32;;;25.80;89.40;;;;;;5012367;28;20386;-71
2022/05/16 13:19:18;;;;;;;9.05;3.67;;;25.90;85.10;;;;;;5032297;28;20120;-71
2022/05/16 13:22:00;;;;;;;8.45;3.80;;;26.00;83.90;;;;;;5013130;28;20044;-71
2022/05/16 13:24:27;;;;;;;6.55;3.50;;;26.10;83.30;;;;;;5032004;28;20041;-71
2022/05/16 13:29:41;;;;;;;5.72;4.25;;;26.30;80.70;;;;;;5014144;28;20509;-71
2022/05/16 13:32:13;;;;;;;7.95;4.07;;;26.20;80.20;;;;;;5024516;28;20049;-71
2022/05/16 13:34:42;;;;;;;7.97;4.68;;;26.20;79.30;;;;;;5015115;28;20075;-71
2022/05/16 13:37:09;;;;;;;6.18;3.88;;;26.10;80.00;;;;;;5015652;28;20034;-72
2022/05/16 13:39:44;;;;;;;10.65;3.90;;;26.00;77.40;;;;;;5011164;28;20037;-71